sensor_id;sensor_type;location;lat;lon;timestamp;temperature;humidity
66610;DHT22;53468;48.276;14.416;2023-07-29T00:09:14;19.00;99.90
66610;DHT22;53468;48.276;14.416;2023-07-29T00:15:09;18.90;99.90
66610;DHT22;53468;48.276;14.416;2023-07-29T00:21:17;18.70;99.90
66610;DHT22;53468;48.276;14.416;2023-07-29T00:27:31;18.70;99.90
66610;DHT22;53468;48.276;14.416;2023-07-29T00:33:38;18.60;99.90
66610;DHT22;53468;48.276;14.416;2023-07-29T01:44:51;18.40;99.90
66610;DHT22;53468;48.276;14.416;2023-07-29T01:50:55;18.40;99.90
66610;DHT22;53468;48.276;14.416;2023-07-29T01:57:04;18.50;99.90
66610;DHT22;53468;48.276;14.416;2023-07-29T02:20:46;18.30;99.90
66610;DHT22;53468;48.276;14.416;2023-07-29T02:26:51;18.00;99.90
66610;DHT22;53468;48.276;14.416;2023-07-29T02:33:15;17.90;99.90
66610;DHT22;53468;48.276;14.416;2023-07-29T02:39:24;17.80;99.90
66610;DHT22;53468;48.276;14.416;2023-07-29T02:45:19;17.70;99.90
66610;DHT22;53468;48.276;14.416;2023-07-29T02:56:43;17.60;99.90
66610;DHT22;53468;48.276;14.416;2023-07-29T03:02:52;17.50;99.90
66610;DHT22;53468;48.276;14.416;2023-07-29T03:08:47;17.30;99.90
66610;DHT22;53468;48.276;14.416;2023-07-29T03:26:23;16.90;99.90
66610;DHT22;53468;48.276;14.416;2023-07-29T03:31:46;16.80;99.90
66610;DHT22;53468;48.276;14.416;2023-07-29T03:37:34;16.80;99.90
66610;DHT22;53468;48.276;14.416;2023-07-29T03:43:46;16.70;99.90
66610;DHT22;53468;48.276;14.416;2023-07-29T03:49:58;16.70;99.90
66610;DHT22;53468;48.276;14.416;2023-07-29T03:55:42;16.80;99.90
66610;DHT22;53468;48.276;14.416;2023-07-29T04:13:14;16.90;99.90
66610;DHT22;53468;48.276;14.416;2023-07-29T04:19:16;17.00;99.90
66610;DHT22;53468;48.276;14.416;2023-07-29T04:25:10;17.20;99.90
66610;DHT22;53468;48.276;14.416;2023-07-29T04:36:21;17.50;99.90
66610;DHT22;53468;48.276;14.416;2023-07-29T04:42:17;17.60;99.90
66610;DHT22;53468;48.276;14.416;2023-07-29T05:12:44;18.10;99.90
66610;DHT22;53468;48.276;14.416;2023-07-29T05:18:29;18.10;99.90
66610;DHT22;53468;48.276;14.416;2023-07-29T05:24:14;18.30;99.90
66610;DHT22;53468;48.276;14.416;2023-07-29T05:59:03;18.90;99.90
66610;DHT22;53468;48.276;14.416;2023-07-29T06:10:14;18.80;99.90
66610;DHT22;53468;48.276;14.416;2023-07-29T06:16:02;18.80;99.90
66610;DHT22;53468;48.276;14.416;2023-07-29T06:21:55;18.80;99.90
66610;DHT22;53468;48.276;14.416;2023-07-29T06:27:35;19.00;99.90
66610;DHT22;53468;48.276;14.416;2023-07-29T07:15:20;22.10;99.90
66610;DHT22;53468;48.276;14.416;2023-07-29T07:21:00;23.00;99.90
66610;DHT22;53468;48.276;14.416;2023-07-29T07:26:34;23.00;99.90
66610;DHT22;53468;48.276;14.416;2023-07-29T07:32:21;23.40;99.90
66610;DHT22;53468;48.276;14.416;2023-07-29T07:38:13;23.90;99.90
66610;DHT22;53468;48.276;14.416;2023-07-29T07:43:27;24.10;99.90
66610;DHT22;53468;48.276;14.416;2023-07-29T07:49:21;24.10;99.90
66610;DHT22;53468;48.276;14.416;2023-07-29T07:54:28;24.30;99.90
66610;DHT22;53468;48.276;14.416;2023-07-29T07:59:54;24.80;99.90
66610;DHT22;53468;48.276;14.416;2023-07-29T08:05:00;25.30;99.90
66610;DHT22;53468;48.276;14.416;2023-07-29T08:10:04;25.70;99.90
66610;DHT22;53468;48.276;14.416;2023-07-29T08:15:08;26.10;99.90
66610;DHT22;53468;48.276;14.416;2023-07-29T08:20:14;25.70;99.90
66610;DHT22;53468;48.276;14.416;2023-07-29T08:25:25;25.60;99.90
66610;DHT22;53468;48.276;14.416;2023-07-29T08:30:28;25.60;99.90
66610;DHT22;53468;48.276;14.416;2023-07-29T08:35:34;26.00;99.90
66610;DHT22;53468;48.276;14.416;2023-07-29T08:40:45;26.30;99.90
66610;DHT22;53468;48.276;14.416;2023-07-29T08:45:49;26.40;99.90
66610;DHT22;53468;48.276;14.416;2023-07-29T08:50:56;26.00;99.90
66610;DHT22;53468;48.276;14.416;2023-07-29T08:56:01;26.50;99.90
66610;DHT22;53468;48.276;14.416;2023-07-29T09:01:06;26.70;99.90
66610;DHT22;53468;48.276;14.416;2023-07-29T09:06:12;27.00;99.90
66610;DHT22;53468;48.276;14.416;2023-07-29T09:11:17;27.20;99.90
66610;DHT22;53468;48.276;14.416;2023-07-29T09:16:27;27.30;99.90
66610;DHT22;53468;48.276;14.416;2023-07-29T09:21:32;27.20;99.90
66610;DHT22;53468;48.276;14.416;2023-07-29T09:26:38;27.40;99.90
66610;DHT22;53468;48.276;14.416;2023-07-29T09:31:41;27.60;99.90
66610;DHT22;53468;48.276;14.416;2023-07-29T09:36:45;27.30;99.90
66610;DHT22;53468;48.276;14.416;2023-07-29T09:41:48;27.50;99.90
66610;DHT22;53468;48.276;14.416;2023-07-29T09:46:51;27.10;99.90
66610;DHT22;53468;48.276;14.416;2023-07-29T09:51:57;27.10;99.90
66610;DHT22;53468;48.276;14.416;2023-07-29T09:57:03;28.00;99.90
66610;DHT22;53468;48.276;14.416;2023-07-29T10:02:11;27.60;99.90
66610;DHT22;53468;48.276;14.416;2023-07-29T10:07:17;27.50;99.90
66610;DHT22;53468;48.276;14.416;2023-07-29T10:12:22;27.10;99.90
66610;DHT22;53468;48.276;14.416;2023-07-29T10:17:26;26.60;99.90
66610;DHT22;53468;48.276;14.416;2023-07-29T10:22:34;26.30;99.90
66610;DHT22;53468;48.276;14.416;2023-07-29T10:27:43;25.50;99.90
66610;DHT22;53468;48.276;14.416;2023-07-29T10:32:46;24.80;99.90
66610;DHT22;53468;48.276;14.416;2023-07-29T10:37:51;24.40;99.90
66610;DHT22;53468;48.276;14.416;2023-07-29T10:43:01;24.30;99.90
66610;DHT22;53468;48.276;14.416;2023-07-29T10:48:08;24.60;99.90
66610;DHT22;53468;48.276;14.416;2023-07-29T10:53:16;24.70;99.90
66610;DHT22;53468;48.276;14.416;2023-07-29T10:58:19;24.40;99.90
66610;DHT22;53468;48.276;14.416;2023-07-29T11:03:22;24.30;99.90
66610;DHT22;53468;48.276;14.416;2023-07-29T11:08:33;24.40;99.90
66610;DHT22;53468;48.276;14.416;2023-07-29T11:13:38;24.80;99.90
66610;DHT22;53468;48.276;14.416;2023-07-29T11:18:41;24.90;99.90
66610;DHT22;53468;48.276;14.416;2023-07-29T11:23:49;24.80;99.90
66610;DHT22;53468;48.276;14.416;2023-07-29T11:28:55;24.70;99.90
66610;DHT22;53468;48.276;14.416;2023-07-29T11:33:59;24.60;99.90
66610;DHT22;53468;48.276;14.416;2023-07-29T11:39:11;24.70;99.90
66610;DHT22;53468;48.276;14.416;2023-07-29T11:44:17;24.90;99.90
66610;DHT22;53468;48.276;14.416;2023-07-29T11:49:20;25.20;99.90
66610;DHT22;53468;48.276;14.416;2023-07-29T11:54:25;25.40;99.90
66610;DHT22;53468;48.276;14.416;2023-07-29T11:59:28;25.60;99.90
66610;DHT22;53468;48.276;14.416;2023-07-29T12:04:32;25.90;99.90
66610;DHT22;53468;48.276;14.416;2023-07-29T12:09:37;26.20;99.90
66610;DHT22;53468;48.276;14.416;2023-07-29T12:14:44;26.20;99.90
66610;DHT22;53468;48.276;14.416;2023-07-29T12:19:53;26.10;99.90
66610;DHT22;53468;48.276;14.416;2023-07-29T12:24:59;26.30;99.90
66610;DHT22;53468;48.276;14.416;2023-07-29T12:30:03;26.20;99.90
66610;DHT22;53468;48.276;14.416;2023-07-29T12:35:10;26.50;99.90
66610;DHT22;53468;48.276;14.416;2023-07-29T12:40:26;26.80;99.90
66610;DHT22;53468;48.276;14.416;2023-07-29T12:45:36;26.90;99.90
66610;DHT22;53468;48.276;14.416;2023-07-29T12:50:40;27.00;99.90
66610;DHT22;53468;48.276;14.416;2023-07-29T12:55:46;26.90;99.90
66610;DHT22;53468;48.276;14.416;2023-07-29T13:00:50;26.90;99.90
66610;DHT22;53468;48.276;14.416;2023-07-29T13:05:54;27.20;99.90
66610;DHT22;53468;48.276;14.416;2023-07-29T13:10:58;27.10;99.90
66610;DHT22;53468;48.276;14.416;2023-07-29T13:16:01;26.80;99.90
66610;DHT22;53468;48.276;14.416;2023-07-29T13:21:04;26.60;99.90
66610;DHT22;53468;48.276;14.416;2023-07-29T13:26:10;26.30;99.90
66610;DHT22;53468;48.276;14.416;2023-07-29T13:31:15;26.00;99.90
66610;DHT22;53468;48.276;14.416;2023-07-29T13:36:19;25.90;99.90
66610;DHT22;53468;48.276;14.416;2023-07-29T13:41:25;25.80;99.90
66610;DHT22;53468;48.276;14.416;2023-07-29T13:46:29;25.50;99.90
66610;DHT22;53468;48.276;14.416;2023-07-29T13:51:34;25.30;99.90
66610;DHT22;53468;48.276;14.416;2023-07-29T13:56:39;25.10;99.90
66610;DHT22;53468;48.276;14.416;2023-07-29T14:01:44;24.80;99.90
66610;DHT22;53468;48.276;14.416;2023-07-29T14:06:51;24.30;99.90
66610;DHT22;53468;48.276;14.416;2023-07-29T14:11:59;22.90;99.90
66610;DHT22;53468;48.276;14.416;2023-07-29T14:17:05;22.50;99.90
66610;DHT22;53468;48.276;14.416;2023-07-29T14:22:10;22.70;99.90
66610;DHT22;53468;48.276;14.416;2023-07-29T14:27:18;22.80;99.90
66610;DHT22;53468;48.276;14.416;2023-07-29T14:32:21;23.10;99.90
66610;DHT22;53468;48.276;14.416;2023-07-29T14:37:27;23.20;99.90
66610;DHT22;53468;48.276;14.416;2023-07-29T14:42:39;23.20;99.90
66610;DHT22;53468;48.276;14.416;2023-07-29T14:47:43;23.10;99.90
66610;DHT22;53468;48.276;14.416;2023-07-29T14:52:48;23.40;99.90
66610;DHT22;53468;48.276;14.416;2023-07-29T14:57:54;23.30;99.90
66610;DHT22;53468;48.276;14.416;2023-07-29T15:02:59;23.00;99.90
66610;DHT22;53468;48.276;14.416;2023-07-29T15:08:09;23.10;99.90
66610;DHT22;53468;48.276;14.416;2023-07-29T15:13:23;23.00;99.90
66610;DHT22;53468;48.276;14.416;2023-07-29T15:18:28;23.20;99.90
66610;DHT22;53468;48.276;14.416;2023-07-29T15:23:34;23.10;99.90
66610;DHT22;53468;48.276;14.416;2023-07-29T15:28:41;23.20;99.90
66610;DHT22;53468;48.276;14.416;2023-07-29T15:33:46;23.20;99.90
66610;DHT22;53468;48.276;14.416;2023-07-29T15:38:51;23.40;99.90
66610;DHT22;53468;48.276;14.416;2023-07-29T15:43:59;23.40;99.90
66610;DHT22;53468;48.276;14.416;2023-07-29T15:49:06;23.20;99.90
66610;DHT22;53468;48.276;14.416;2023-07-29T15:54:13;23.20;99.90
66610;DHT22;53468;48.276;14.416;2023-07-29T15:59:22;23.10;99.90
66610;DHT22;53468;48.276;14.416;2023-07-29T16:04:31;23.00;99.90
66610;DHT22;53468;48.276;14.416;2023-07-29T16:09:40;23.10;99.90
66610;DHT22;53468;48.276;14.416;2023-07-29T16:15:05;23.00;99.90
66610;DHT22;53468;48.276;14.416;2023-07-29T16:20:30;23.10;99.90
66610;DHT22;53468;48.276;14.416;2023-07-29T16:25:41;23.00;99.90
66610;DHT22;53468;48.276;14.416;2023-07-29T16:31:02;23.20;99.90
66610;DHT22;53468;48.276;14.416;2023-07-29T16:36:27;23.20;99.90
66610;DHT22;53468;48.276;14.416;2023-07-29T16:41:39;23.00;99.90
66610;DHT22;53468;48.276;14.416;2023-07-29T16:47:00;23.00;99.90
66610;DHT22;53468;48.276;14.416;2023-07-29T16:52:25;23.00;99.90
66610;DHT22;53468;48.276;14.416;2023-07-29T16:58:09;23.00;99.90
66610;DHT22;53468;48.276;14.416;2023-07-29T17:03:52;22.90;99.90
66610;DHT22;53468;48.276;14.416;2023-07-29T17:09:13;23.00;99.90
66610;DHT22;53468;48.276;14.416;2023-07-29T17:15:04;22.90;99.90
66610;DHT22;53468;48.276;14.416;2023-07-29T17:20:57;22.70;99.90
66610;DHT22;53468;48.276;14.416;2023-07-29T17:26:38;22.50;99.90
66610;DHT22;53468;48.276;14.416;2023-07-29T17:32:12;22.30;99.90
66610;DHT22;53468;48.276;14.416;2023-07-29T17:55:02;22.00;99.90
66610;DHT22;53468;48.276;14.416;2023-07-29T18:01:14;22.10;99.90
66610;DHT22;53468;48.276;14.416;2023-07-29T18:06:49;22.00;99.90
66610;DHT22;53468;48.276;14.416;2023-07-29T18:18:58;21.80;99.90
66610;DHT22;53468;48.276;14.416;2023-07-29T18:24:33;21.80;99.90
66610;DHT22;53468;48.276;14.416;2023-07-29T18:30:30;21.80;99.90
66610;DHT22;53468;48.276;14.416;2023-07-29T19:16:46;21.30;99.90
66610;DHT22;53468;48.276;14.416;2023-07-29T19:22:00;21.20;99.90
66610;DHT22;53468;48.276;14.416;2023-07-29T19:27:19;21.20;99.90
66610;DHT22;53468;48.276;14.416;2023-07-29T19:38:35;21.30;99.90
66610;DHT22;53468;48.276;14.416;2023-07-29T19:44:36;21.20;99.90
66610;DHT22;53468;48.276;14.416;2023-07-29T19:49:56;21.10;99.90
66610;DHT22;53468;48.276;14.416;2023-07-29T20:01:43;21.10;99.90
66610;DHT22;53468;48.276;14.416;2023-07-29T20:13:05;21.10;99.90
66610;DHT22;53468;48.276;14.416;2023-07-29T20:59:55;20.70;99.90
66610;DHT22;53468;48.276;14.416;2023-07-29T21:05:56;20.80;99.90
66610;DHT22;53468;48.276;14.416;2023-07-29T21:11:13;20.70;99.90
66610;DHT22;53468;48.276;14.416;2023-07-29T21:22:31;20.60;99.90
66610;DHT22;53468;48.276;14.416;2023-07-29T21:28:14;20.50;99.90
66610;DHT22;53468;48.276;14.416;2023-07-29T21:34:12;20.40;99.90
66610;DHT22;53468;48.276;14.416;2023-07-29T21:51:38;20.10;99.90
66610;DHT22;53468;48.276;14.416;2023-07-29T21:57:31;20.00;99.90
66610;DHT22;53468;48.276;14.416;2023-07-29T22:03:14;19.90;99.90
